Time;durP1;ratioP1;P1;durP2;ratioP2;P2;SDS_P1;SDS_P2;PMS_P1;PMS_P2;Temp;Humidity;BMP_temperature;BMP_pressure;BME280_temperature;BME280_humidity;BME280_pressure;Samples;Min_cycle;Max_cycle;Signal;HPM_P1;HPM_P2
2021/06/28 00:01:30;;;;;;;17.75;10.88;;;16.50;99.90;;;;;;5035179;28;20038;-70
2021/06/28 00:03:56;;;;;;;17.15;9.82;;;16.40;99.90;;;;;;5035150;28;20516;-70
2021/06/28 00:06:22;;;;;;;17.05;9.75;;;16.30;99.90;;;;;;5034275;28;20091;-70
2021/06/28 00:08:49;;;;;;;17.63;10.02;;;16.30;99.90;;;;;;5035066;28;20046;-70
2021/06/28 00:11:14;;;;;;;15.60;9.70;;;16.30;99.90;;;;;;5035220;28;20045;-70
2021/06/28 00:13:42;;;;;;;18.63;9.93;;;16.30;99.90;;;;;;5034954;28;20045;-70
2021/06/28 00:16:09;;;;;;;13.85;8.20;;;16.30;99.90;;;;;;5034898;28;20041;-70
2021/06/28 00:18:36;;;;;;;15.23;9.13;;;16.30;99.90;;;;;;5034531;28;20042;-70
2021/06/28 00:21:04;;;;;;;14.48;10.32;;;16.30;99.90;;;;;;5034718;28;20053;-69
2021/06/28 00:23:30;;;;;;;17.05;10.25;;;16.30;99.90;;;;;;5034841;28;20120;-69
2021/06/28 00:25:56;;;;;;;14.52;8.90;;;16.30;99.90;;;;;;5034719;28;20037;-69
2021/06/28 00:28:22;;;;;;;12.50;8.75;;;16.30;99.90;;;;;;5034699;28;20041;-70
2021/06/28 00:30:49;;;;;;;14.18;8.05;;;16.30;99.90;;;;;;5034346;28;20037;-70
2021/06/28 00:33:17;;;;;;;9.48;7.28;;;16.20;99.90;;;;;;5034717;28;20033;-69
2021/06/28 00:35:44;;;;;;;12.23;7.85;;;16.30;99.90;;;;;;5034821;28;20099;-69
2021/06/28 00:38:10;;;;;;;9.40;6.95;;;16.30;99.90;;;;;;5035080;28;20473;-70
2021/06/28 00:40:38;;;;;;;9.98;6.32;;;16.30;99.90;;;;;;5034346;28;20042;-70
2021/06/28 00:43:04;;;;;;;10.30;6.88;;;16.20;99.90;;;;;;5034488;28;20037;-69
2021/06/28 00:45:34;;;;;;;9.43;6.32;;;16.30;99.90;;;;;;5034312;28;20072;-70
2021/06/28 00:48:14;;;;;;;10.30;6.45;;;16.30;99.90;;;;;;5034308;28;20417;-70
2021/06/28 00:50:50;;;;;;;12.10;6.18;;;16.30;99.90;;;;;;5033886;28;20041;-69
2021/06/28 00:53:18;;;;;;;11.75;6.35;;;16.20;99.90;;;;;;5034234;28;20083;-70
2021/06/28 00:55:45;;;;;;;10.38;6.63;;;16.10;99.90;;;;;;5034767;28;20545;-70
2021/06/28 00:58:11;;;;;;;10.95;6.80;;;16.10;99.90;;;;;;5034322;28;20041;-69
2021/06/28 01:00:40;;;;;;;8.98;6.75;;;16.10;99.90;;;;;;5033608;28;20399;-70
2021/06/28 01:03:06;;;;;;;10.68;7.43;;;16.00;99.90;;;;;;5034116;28;20038;-70
2021/06/28 01:05:34;;;;;;;10.10;6.97;;;16.10;99.90;;;;;;5033788;28;20042;-70
2021/06/28 01:08:01;;;;;;;12.55;7.95;;;16.10;99.90;;;;;;5033924;28;20038;-70
2021/06/28 01:10:28;;;;;;;8.45;6.55;;;16.00;99.90;;;;;;5033597;28;20080;-69
2021/06/28 01:12:54;;;;;;;10.95;6.57;;;16.20;99.90;;;;;;5033971;28;20037;-70
2021/06/28 01:15:21;;;;;;;11.52;7.45;;;16.10;99.90;;;;;;5034031;28;20409;-69
2021/06/28 01:17:48;;;;;;;14.82;7.82;;;16.10;99.90;;;;;;5034400;28;20482;-69
2021/06/28 01:20:20;;;;;;;10.93;7.07;;;16.20;99.90;;;;;;5033403;28;20045;-69
2021/06/28 01:22:52;;;;;;;10.02;6.75;;;16.20;99.90;;;;;;5034009;28;20041;-69
2021/06/28 01:25:24;;;;;;;10.38;6.78;;;16.20;99.90;;;;;;5033980;28;20038;-70
2021/06/28 01:27:51;;;;;;;10.02;6.60;;;16.30;99.90;;;;;;5034105;28;20381;-69
2021/06/28 01:30:25;;;;;;;9.05;6.97;;;16.20;99.90;;;;;;5032185;28;20120;-69
2021/06/28 01:32:51;;;;;;;10.35;6.93;;;16.30;99.90;;;;;;5033723;28;20041;-70
2021/06/28 01:35:17;;;;;;;8.25;6.93;;;16.10;99.90;;;;;;5033675;28;20045;-69
2021/06/28 01:37:46;;;;;;;12.35;8.00;;;16.20;99.90;;;;;;5033535;28;20041;-69
2021/06/28 01:40:12;;;;;;;11.38;7.45;;;16.20;99.90;;;;;;5033030;28;20041;-70
2021/06/28 01:42:38;;;;;;;11.23;7.30;;;16.10;99.90;;;;;;5033542;28;20037;-70
2021/06/28 01:45:08;;;;;;;11.40;7.93;;;16.10;99.90;;;;;;5033386;28;20128;-69
2021/06/28 01:47:39;;;;;;;10.15;7.47;;;16.20;99.90;;;;;;5033556;28;20076;-69
2021/06/28 01:50:08;;;;;;;13.77;8.07;;;16.30;99.90;;;;;;5033022;28;20041;-70
2021/06/28 01:52:34;;;;;;;11.00;8.20;;;16.20;99.90;;;;;;5033368;28;20037;-69
2021/06/28 01:55:00;;;;;;;14.55;8.63;;;16.30;99.90;;;;;;5033257;28;20400;-70
2021/06/28 01:57:26;;;;;;;15.07;8.98;;;16.20;99.90;;;;;;5033242;28;20049;-70
2021/06/28 01:59:52;;;;;;;13.15;8.05;;;16.10;99.90;;;;;;5032819;28;20044;-69
2021/06/28 02:02:17;;;;;;;12.32;9.00;;;16.10;99.90;;;;;;5033251;28;20034;-69
2021/06/28 02:04:43;;;;;;;16.40;8.98;;;16.00;99.90;;;;;;5033299;28;20040;-69
2021/06/28 02:07:09;;;;;;;13.77;8.27;;;16.10;99.90;;;;;;5033270;28;20521;-70
2021/06/28 02:09:35;;;;;;;14.95;9.95;;;16.10;99.90;;;;;;5032901;28;20037;-70
2021/06/28 02:12:02;;;;;;;14.57;10.85;;;16.10;99.90;;;;;;5033065;28;20503;-70
2021/06/28 02:14:28;;;;;;;14.60;9.57;;;16.10;99.90;;;;;;5033105;28;20041;-69
2021/06/28 02:16:54;;;;;;;17.45;9.73;;;16.10;99.90;;;;;;5035295;28;20129;-70
2021/06/28 02:19:20;;;;;;;16.60;10.13;;;16.10;99.90;;;;;;5036642;28;20120;-69
2021/06/28 02:21:48;;;;;;;12.52;9.32;;;16.10;99.90;;;;;;5037163;28;20049;-70
2021/06/28 02:24:15;;;;;;;13.93;9.02;;;16.10;99.90;;;;;;5037112;28;20037;-70
2021/06/28 02:26:43;;;;;;;15.57;11.23;;;16.10;99.90;;;;;;5037160;28;20486;-70
2021/06/28 02:29:08;;;;;;;15.63;10.88;;;16.20;99.90;;;;;;5036745;28;20037;-69
2021/06/28 02:31:34;;;;;;;16.02;10.80;;;16.20;99.90;;;;;;5035895;28;20046;-70
2021/06/28 02:34:03;;;;;;;20.50;10.32;;;16.30;99.90;;;;;;5037055;28;20059;-70
2021/06/28 02:36:29;;;;;;;14.00;10.35;;;16.20;99.90;;;;;;5037012;28;20037;-69
2021/06/28 02:38:56;;;;;;;18.05;10.30;;;16.20;99.90;;;;;;5036900;28;20390;-70
2021/06/28 02:41:23;;;;;;;14.25;10.80;;;16.20;99.90;;;;;;5036605;28;20041;-70
2021/06/28 02:43:51;;;;;;;17.52;10.95;;;16.30;99.90;;;;;;5036725;28;20045;-70
2021/06/28 02:46:19;;;;;;;18.42;10.18;;;16.20;99.90;;;;;;5036589;28;20044;-69
2021/06/28 02:48:44;;;;;;;14.75;10.30;;;16.20;99.90;;;;;;5036464;28;20029;-70
2021/06/28 02:51:16;;;;;;;14.60;9.93;;;16.20;99.90;;;;;;5036592;28;20045;-70
2021/06/28 02:53:42;;;;;;;15.52;11.43;;;16.20;99.90;;;;;;5037091;28;20045;-70
2021/06/28 02:56:14;;;;;;;12.80;9.57;;;16.20;99.90;;;;;;5035227;28;20500;-70
2021/06/28 02:58:50;;;;;;;16.80;11.20;;;16.20;99.90;;;;;;5036140;28;20049;-70
2021/06/28 03:01:18;;;;;;;16.58;10.32;;;16.20;99.90;;;;;;5036322;28;20192;-70
2021/06/28 03:03:44;;;;;;;17.83;11.25;;;16.10;99.90;;;;;;5036290;28;20482;-70
2021/06/28 03:06:11;;;;;;;16.45;11.02;;;16.10;99.90;;;;;;5036247;28;20044;-70
2021/06/28 03:08:36;;;;;;;16.23;10.82;;;16.10;99.90;;;;;;5035952;28;20041;-70
2021/06/28 03:11:04;;;;;;;19.42;11.32;;;16.10;99.90;;;;;;5036170;28;20103;-70
2021/06/28 03:13:36;;;;;;;20.40;12.82;;;16.10;99.90;;;;;;5036215;28;20112;-70
2021/06/28 03:16:02;;;;;;;15.95;11.48;;;16.10;99.90;;;;;;5036318;28;20041;-70
2021/06/28 03:18:28;;;;;;;19.02;13.15;;;16.10;99.90;;;;;;5035804;28;20047;-71
2021/06/28 03:20:54;;;;;;;17.80;12.57;;;16.00;99.90;;;;;;5035774;28;20117;-70
2021/06/28 03:23:21;;;;;;;19.42;13.73;;;16.00;99.90;;;;;;5035926;28;20041;-70
2021/06/28 03:25:46;;;;;;;22.90;13.52;;;16.00;99.90;;;;;;5036173;28;20416;-70
2021/06/28 03:28:13;;;;;;;26.50;14.93;;;16.00;99.90;;;;;;5034594;28;20029;-70
2021/06/28 03:30:38;;;;;;;26.02;14.63;;;16.10;99.90;;;;;;5034278;28;20052;-70
2021/06/28 03:33:04;;;;;;;25.40;15.15;;;16.10;99.90;;;;;;5036236;28;20037;-70
2021/06/28 03:35:31;;;;;;;22.30;14.68;;;16.20;99.90;;;;;;5035834;28;20029;-69
2021/06/28 03:37:58;;;;;;;24.55;16.23;;;16.20;99.90;;;;;;5035641;28;20112;-70
2021/06/28 03:40:24;;;;;;;25.73;15.50;;;16.20;99.90;;;;;;5035204;28;20118;-70
2021/06/28 03:42:50;;;;;;;19.83;14.25;;;16.20;99.90;;;;;;5034483;28;20044;-70
2021/06/28 03:45:16;;;;;;;18.08;13.88;;;16.20;99.90;;;;;;5035856;28;20033;-70
2021/06/28 03:47:42;;;;;;;18.77;12.60;;;16.20;99.90;;;;;;5035705;28;20033;-69
2021/06/28 03:50:10;;;;;;;17.33;12.02;;;16.20;99.90;;;;;;5035015;28;20052;-70
2021/06/28 03:52:36;;;;;;;17.85;11.23;;;16.20;99.90;;;;;;5035570;28;20049;-70
2021/06/28 03:55:04;;;;;;;17.27;12.30;;;16.20;99.90;;;;;;5035588;28;20041;-70
2021/06/28 03:57:29;;;;;;;14.90;9.85;;;16.20;99.90;;;;;;5035231;28;20042;-69
2021/06/28 03:59:55;;;;;;;17.48;10.10;;;16.20;99.90;;;;;;5034970;28;20508;-70
2021/06/28 04:02:21;;;;;;;14.32;10.13;;;16.30;99.90;;;;;;5035319;28;20069;-70
2021/06/28 04:04:50;;;;;;;18.65;11.18;;;16.30;99.90;;;;;;5035340;28;20037;-69
2021/06/28 04:07:16;;;;;;;14.40;10.55;;;16.30;99.90;;;;;;5035041;28;20048;-70
2021/06/28 04:09:42;;;;;;;16.13;10.13;;;16.30;99.90;;;;;;5034662;28;20045;-70
2021/06/28 04:12:12;;;;;;;15.52;9.82;;;16.40;99.90;;;;;;5033839;28;20060;-70
2021/06/28 04:14:38;;;;;;;14.50;10.63;;;16.40;99.90;;;;;;5035599;28;20042;-70
2021/06/28 04:17:05;;;;;;;14.13;9.93;;;16.50;99.90;;;;;;5034987;28;20034;-70
2021/06/28 04:19:30;;;;;;;12.95;9.43;;;16.50;99.90;;;;;;5034792;28;20045;-70
2021/06/28 04:21:56;;;;;;;15.13;9.55;;;16.70;99.90;;;;;;5034695;28;20417;-70
2021/06/28 04:24:22;;;;;;;12.15;9.13;;;16.70;99.90;;;;;;5033629;28;20042;-70
2021/06/28 04:26:48;;;;;;;13.60;8.40;;;16.80;99.90;;;;;;5035143;28;20054;-70
2021/06/28 04:29:14;;;;;;;14.20;9.30;;;16.80;99.90;;;;;;5034651;28;20553;-70
2021/06/28 04:31:40;;;;;;;14.18;9.65;;;16.90;99.90;;;;;;5034447;28;20049;-70
2021/06/28 04:34:06;;;;;;;12.27;9.13;;;16.80;99.90;;;;;;5035060;28;20037;-70
2021/06/28 04:36:31;;;;;;;15.00;10.02;;;16.90;99.90;;;;;;5034732;28;20049;-70
2021/06/28 04:38:57;;;;;;;15.73;8.45;;;16.80;99.90;;;;;;5033787;28;20068;-70
2021/06/28 04:41:23;;;;;;;14.32;8.77;;;16.90;99.90;;;;;;5034279;28;20532;-70
2021/06/28 04:43:49;;;;;;;12.30;9.23;;;16.90;99.90;;;;;;5034566;28;20115;-70
2021/06/28 04:46:14;;;;;;;14.32;9.30;;;16.80;99.90;;;;;;5034296;28;20065;-70
2021/06/28 04:48:40;;;;;;;11.88;8.32;;;16.90;99.90;;;;;;5034264;28;20061;-71
2021/06/28 04:51:06;;;;;;;14.48;9.25;;;16.90;99.90;;;;;;5034397;28;20386;-70
2021/06/28 04:53:32;;;;;;;16.08;8.93;;;17.00;99.90;;;;;;5034197;28;20048;-70
2021/06/28 04:55:58;;;;;;;14.15;9.25;;;16.90;99.90;;;;;;5034235;28;20379;-70
2021/06/28 04:58:25;;;;;;;13.40;8.68;;;17.00;99.90;;;;;;5034082;28;20486;-70
2021/06/28 05:00:50;;;;;;;12.35;8.57;;;17.00;99.90;;;;;;5033682;28;20049;-70
2021/06/28 05:03:16;;;;;;;12.43;9.02;;;17.00;99.90;;;;;;5034022;28;20382;-70
2021/06/28 05:05:42;;;;;;;12.75;8.82;;;16.90;99.90;;;;;;5034270;28;20449;-70
2021/06/28 05:08:07;;;;;;;13.38;7.88;;;16.90;99.90;;;;;;5034250;28;20482;-70
2021/06/28 05:10:33;;;;;;;10.65;8.55;;;16.90;99.90;;;;;;5033724;28;20041;-70
2021/06/28 05:12:59;;;;;;;11.50;8.35;;;16.90;99.90;;;;;;5033977;28;20037;-70
2021/06/28 05:15:24;;;;;;;13.85;8.80;;;16.90;99.90;;;;;;5033882;28;20107;-70
2021/06/28 05:17:50;;;;;;;16.20;9.55;;;17.10;99.90;;;;;;5033885;28;20076;-69
2021/06/28 05:20:16;;;;;;;13.35;8.07;;;17.10;99.90;;;;;;5032120;28;20046;-70
2021/06/28 05:22:42;;;;;;;11.95;8.75;;;17.10;99.90;;;;;;5034237;28;20522;-69
2021/06/28 05:25:10;;;;;;;13.88;9.32;;;17.10;99.90;;;;;;5034349;28;20048;-70
2021/06/28 05:27:37;;;;;;;13.02;8.95;;;17.10;99.90;;;;;;5033989;28;20044;-70
2021/06/28 05:30:07;;;;;;;11.88;8.95;;;17.10;99.90;;;;;;5033439;28;20068;-69
2021/06/28 05:32:33;;;;;;;12.60;9.15;;;17.10;99.90;;;;;;5033950;28;20374;-69
2021/06/28 05:34:59;;;;;;;15.52;11.40;;;17.10;99.90;;;;;;5033944;28;20037;-69
2021/06/28 05:37:25;;;;;;;14.70;11.00;;;17.20;99.90;;;;;;5033684;28;20067;-69
2021/06/28 05:39:51;;;;;;;15.85;12.85;;;17.20;99.90;;;;;;5033305;28;20033;-69
2021/06/28 05:42:17;;;;;;;16.15;10.98;;;17.10;99.90;;;;;;5033473;28;20099;-69
2021/06/28 05:44:43;;;;;;;16.65;10.35;;;17.10;99.90;;;;;;5033431;28;20037;-69
2021/06/28 05:47:11;;;;;;;12.40;9.50;;;17.20;99.90;;;;;;5033469;28;20037;-69
2021/06/28 05:49:38;;;;;;;12.10;9.73;;;17.20;99.90;;;;;;5032967;28;20045;-69
2021/06/28 05:52:05;;;;;;;12.48;9.43;;;17.20;99.90;;;;;;5033236;28;20489;-69
2021/06/28 05:54:31;;;;;;;13.77;9.25;;;17.30;99.90;;;;;;5033435;28;20389;-69
2021/06/28 05:56:57;;;;;;;14.52;9.18;;;17.30;99.90;;;;;;5033369;28;20045;-69
2021/06/28 05:59:24;;;;;;;11.98;9.15;;;17.30;99.90;;;;;;5033061;28;20437;-70
2021/06/28 06:01:50;;;;;;;10.82;8.77;;;17.40;99.90;;;;;;5032193;28;20049;-69
2021/06/28 06:04:15;;;;;;;11.57;9.88;;;17.40;99.90;;;;;;5033437;28;20068;-69
2021/06/28 06:06:42;;;;;;;13.40;9.02;;;17.40;99.90;;;;;;5033350;28;20044;-69
2021/06/28 06:09:07;;;;;;;13.82;9.25;;;17.40;99.90;;;;;;5032849;28;20037;-70
2021/06/28 06:11:33;;;;;;;15.40;9.90;;;17.50;99.90;;;;;;5033203;28;20551;-69
2021/06/28 06:13:59;;;;;;;11.70;9.07;;;17.70;99.90;;;;;;5033316;28;20041;-70
2021/06/28 06:16:25;;;;;;;13.25;9.90;;;17.80;99.90;;;;;;5033192;28;20037;-69
2021/06/28 06:18:52;;;;;;;12.60;9.15;;;18.10;99.90;;;;;;5032329;28;20092;-69
2021/06/28 06:21:21;;;;;;;14.10;8.77;;;18.20;99.90;;;;;;5033012;28;20053;-70
2021/06/28 06:23:47;;;;;;;12.52;8.95;;;18.60;99.90;;;;;;5033129;28;20461;-70
2021/06/28 06:26:13;;;;;;;13.63;8.77;;;18.90;99.90;;;;;;5033009;28;20064;-70
2021/06/28 06:28:39;;;;;;;14.02;8.63;;;19.20;99.90;;;;;;5032748;28;20037;-70
2021/06/28 06:31:05;;;;;;;11.80;8.48;;;19.50;99.90;;;;;;5032674;28;20052;-70
2021/06/28 06:33:32;;;;;;;9.50;7.78;;;19.70;99.90;;;;;;5032782;28;20065;-70
2021/06/28 06:35:57;;;;;;;8.73;7.82;;;20.00;99.90;;;;;;5032816;28;20397;-68
2021/06/28 06:38:23;;;;;;;11.93;8.48;;;20.20;99.90;;;;;;5032776;28;20116;-68
2021/06/28 06:40:49;;;;;;;10.50;7.60;;;20.40;99.90;;;;;;5032479;28;20092;-68
2021/06/28 06:43:16;;;;;;;10.23;8.32;;;20.60;99.90;;;;;;5032819;28;20049;-68
2021/06/28 06:45:42;;;;;;;9.90;8.15;;;20.80;99.90;;;;;;5033118;28;20037;-68
2021/06/28 06:48:09;;;;;;;11.60;7.95;;;20.90;99.90;;;;;;5033417;28;20038;-68
2021/06/28 06:50:34;;;;;;;10.45;8.65;;;20.70;99.90;;;;;;5032827;28;20482;-68
2021/06/28 06:53:00;;;;;;;10.18;7.38;;;20.20;99.90;;;;;;5033324;28;20044;-68
2021/06/28 06:55:27;;;;;;;12.35;8.63;;;20.10;99.90;;;;;;5033246;28;20445;-68
2021/06/28 06:57:53;;;;;;;10.13;8.27;;;20.00;99.90;;;;;;5032815;28;20068;-68
2021/06/28 07:00:21;;;;;;;9.10;8.15;;;19.80;99.90;;;;;;5032365;28;20065;-68
2021/06/28 07:02:48;;;;;;;10.90;9.10;;;19.90;99.90;;;;;;5034621;28;20041;-68
2021/06/28 07:05:15;;;;;;;12.40;8.85;;;20.30;99.90;;;;;;5036373;28;20044;-68
2021/06/28 07:07:42;;;;;;;12.68;8.27;;;20.60;99.90;;;;;;5036607;28;20116;-68
2021/06/28 07:10:09;;;;;;;9.85;8.57;;;20.90;99.30;;;;;;5035875;28;20377;-68
2021/06/28 07:12:35;;;;;;;11.68;7.78;;;21.00;99.10;;;;;;5036123;28;20041;-68
2021/06/28 07:15:01;;;;;;;12.88;8.20;;;21.30;98.80;;;;;;5036252;28;20100;-67
2021/06/28 07:17:27;;;;;;;8.98;7.80;;;21.60;98.30;;;;;;5036272;28;20112;-68
2021/06/28 07:19:53;;;;;;;10.23;7.68;;;21.70;97.30;;;;;;5035667;28;20080;-68
2021/06/28 07:22:19;;;;;;;11.35;7.07;;;21.70;97.00;;;;;;5036057;28;20439;-68
2021/06/28 07:24:45;;;;;;;13.50;8.13;;;22.00;97.60;;;;;;5035996;28;20064;-68
2021/06/28 07:27:12;;;;;;;9.43;8.35;;;22.20;97.00;;;;;;5036081;28;20048;-68
2021/06/28 07:29:38;;;;;;;10.73;7.38;;;22.10;96.70;;;;;;5035693;28;20045;-68
2021/06/28 07:32:05;;;;;;;9.68;7.38;;;22.20;97.00;;;;;;5035862;28;20408;-68
2021/06/28 07:34:31;;;;;;;14.98;8.60;;;22.40;96.20;;;;;;5035768;28;20072;-68
2021/06/28 07:36:56;;;;;;;12.52;8.40;;;22.60;95.50;;;;;;5034762;28;20041;-68
2021/06/28 07:39:22;;;;;;;12.20;8.90;;;22.60;94.80;;;;;;5035225;28;20501;-69
2021/06/28 07:41:50;;;;;;;11.30;7.78;;;22.80;94.60;;;;;;5035715;28;20045;-68
2021/06/28 07:44:16;;;;;;;9.13;7.35;;;22.80;94.80;;;;;;5035612;28;20040;-68
2021/06/28 07:46:43;;;;;;;14.73;9.02;;;23.00;94.90;;;;;;5035441;28;20500;-69
2021/06/28 07:49:09;;;;;;;9.77;7.18;;;23.00;94.20;;;;;;5035134;28;20091;-69
2021/06/28 07:51:37;;;;;;;11.60;7.82;;;23.30;94.30;;;;;;5035375;28;20095;-68
2021/06/28 07:54:04;;;;;;;8.93;7.97;;;23.20;93.90;;;;;;5035453;28;20034;-69
2021/06/28 07:56:30;;;;;;;9.75;8.10;;;23.40;93.40;;;;;;5035352;28;20175;-69
2021/06/28 07:58:55;;;;;;;12.40;7.32;;;23.40;93.30;;;;;;5035392;28;20533;-69
2021/06/28 08:01:22;;;;;;;12.10;8.32;;;23.60;93.40;;;;;;5035140;28;20084;-69
2021/06/28 08:03:48;;;;;;;10.55;7.63;;;23.50;93.40;;;;;;5035246;28;20041;-69
2021/06/28 08:06:15;;;;;;;9.82;8.75;;;23.70;92.50;;;;;;5035153;28;20045;-69
2021/06/28 08:08:42;;;;;;;11.60;9.52;;;23.80;92.10;;;;;;5034703;28;20045;-70
2021/06/28 08:11:09;;;;;;;12.98;8.57;;;23.80;92.30;;;;;;5035031;28;20067;-69
2021/06/28 08:13:42;;;;;;;10.68;9.02;;;23.90;92.20;;;;;;5034458;28;20375;-69
2021/06/28 08:16:07;;;;;;;8.00;7.20;;;23.90;92.20;;;;;;5035364;28;20049;-69
2021/06/28 08:18:34;;;;;;;10.50;8.95;;;23.90;92.50;;;;;;5034533;28;20041;-69
2021/06/28 08:21:01;;;;;;;8.95;7.40;;;23.70;92.00;;;;;;5034722;28;20042;-69
2021/06/28 08:23:27;;;;;;;11.60;8.63;;;23.90;92.20;;;;;;5035308;28;20045;-69
2021/06/28 08:25:52;;;;;;;11.00;8.90;;;24.00;91.90;;;;;;5034884;28;20398;-69
2021/06/28 08:28:19;;;;;;;9.25;8.10;;;24.20;91.90;;;;;;5033967;28;20044;-69
2021/06/28 08:30:45;;;;;;;10.48;8.18;;;24.20;92.00;;;;;;5034295;28;20042;-69
2021/06/28 08:33:10;;;;;;;10.68;8.43;;;24.30;92.00;;;;;;5034567;28;20140;-69
2021/06/28 08:35:36;;;;;;;10.70;8.50;;;24.50;91.30;;;;;;5034570;28;20429;-69
2021/06/28 08:38:03;;;;;;;10.82;8.30;;;24.50;91.50;;;;;;5034694;28;20047;-69
2021/06/28 08:40:29;;;;;;;11.80;8.40;;;24.60;91.20;;;;;;5034079;28;20044;-69
2021/06/28 08:42:55;;;;;;;8.98;7.82;;;24.50;91.80;;;;;;5033440;28;20045;-69
2021/06/28 08:45:22;;;;;;;10.13;8.65;;;24.80;91.20;;;;;;5034508;28;20038;-69
2021/06/28 08:47:48;;;;;;;9.98;8.38;;;24.80;92.20;;;;;;5034472;28;20045;-68
2021/06/28 08:50:14;;;;;;;10.90;8.82;;;25.00;91.40;;;;;;5034125;28;20378;-68
2021/06/28 08:52:42;;;;;;;9.50;8.32;;;24.90;90.60;;;;;;5034146;28;20034;-69
2021/06/28 08:55:10;;;;;;;10.23;7.78;;;25.10;90.80;;;;;;5034282;28;20112;-69
2021/06/28 08:57:39;;;;;;;10.68;7.90;;;25.30;90.70;;;;;;5034294;28;20064;-69
2021/06/28 09:00:13;;;;;;;9.90;8.20;;;25.50;89.60;;;;;;5033860;28;20125;-69
2021/06/28 09:02:53;;;;;;;8.73;7.13;;;25.60;89.30;;;;;;5034351;28;20091;-69
2021/06/28 09:05:19;;;;;;;8.88;7.80;;;25.90;87.20;;;;;;5034526;28;20037;-69
2021/06/28 09:07:45;;;;;;;9.95;7.05;;;25.60;88.20;;;;;;5034445;28;20037;-69
2021/06/28 09:10:40;;;;;;;10.13;7.95;;;25.90;89.60;;;;;;5033910;28;20068;-69
2021/06/28 09:13:06;;;;;;;11.77;8.05;;;26.10;86.30;;;;;;5033987;28;20497;-69
2021/06/28 09:15:43;;;;;;;8.18;7.32;;;26.00;87.20;;;;;;5033896;28;20091;-69
2021/06/28 09:18:20;;;;;;;8.73;6.97;;;26.30;85.80;;;;;;5033996;28;20033;-70
2021/06/28 09:20:47;;;;;;;8.65;6.70;;;26.60;84.20;;;;;;5033590;28;20084;-70
2021/06/28 09:23:31;;;;;;;8.48;6.93;;;26.60;85.60;;;;;;5033945;28;20087;-69
2021/06/28 09:25:59;;;;;;;9.68;7.90;;;26.90;85.80;;;;;;5033497;28;20477;-69
2021/06/28 09:28:37;;;;;;;9.68;8.18;;;26.90;85.30;;;;;;5033727;28;20042;-69
2021/06/28 09:31:04;;;;;;;9.73;7.75;;;26.90;85.40;;;;;;5033743;28;20489;-69
2021/06/28 09:33:30;;;;;;;11.35;6.80;;;26.90;83.30;;;;;;5033518;28;20049;-70
2021/06/28 09:35:55;;;;;;;9.02;6.65;;;26.80;85.00;;;;;;5033525;28;20037;-70
2021/06/28 09:38:39;;;;;;;7.03;6.32;;;27.10;85.10;;;;;;5033719;28;20047;-70
2021/06/28 09:41:24;;;;;;;8.90;8.00;;;27.40;85.50;;;;;;5033342;28;20056;-70
2021/06/28 09:43:59;;;;;;;10.10;7.45;;;27.30;83.40;;;;;;5033970;28;20041;-70
2021/06/28 09:46:25;;;;;;;8.50;6.90;;;27.10;84.80;;;;;;5033379;28;20118;-70
2021/06/28 09:48:53;;;;;;;7.40;5.95;;;27.60;86.50;;;;;;5033131;28;20122;-70
2021/06/28 09:51:27;;;;;;;9.10;6.55;;;28.00;85.90;;;;;;5033472;28;20056;-70
2021/06/28 09:54:15;;;;;;;9.73;6.75;;;27.90;83.80;;;;;;5032294;28;20045;-70
2021/06/28 09:56:50;;;;;;;8.23;7.10;;;27.70;84.10;;;;;;5033209;28;20056;-70
2021/06/28 09:59:31;;;;;;;7.85;6.50;;;27.50;81.80;;;;;;5033158;28;20034;-70
2021/06/28 10:02:13;;;;;;;9.10;8.20;;;27.60;82.00;;;;;;5033519;28;20401;-70
2021/06/28 10:05:27;;;;;;;9.30;8.27;;;27.40;81.00;;;;;;5033660;28;20038;-70
2021/06/28 10:07:39;;;;;;;9.82;7.70;;;27.30;84.20;;;;;;5030545;28;20127;-70
2021/06/28 10:10:23;;;;;;;8.18;7.40;;;27.40;84.40;;;;;;5033128;28;20045;-70
2021/06/28 10:12:51;;;;;;;8.98;7.13;;;27.40;82.60;;;;;;5033375;28;20045;-70
2021/06/28 10:15:18;;;;;;;10.15;7.53;;;27.30;82.80;;;;;;5033237;28;20048;-70
2021/06/28 10:17:44;;;;;;;8.82;6.90;;;27.10;83.40;;;;;;5033370;28;20033;-70
2021/06/28 10:20:13;;;;;;;7.78;6.97;;;27.30;82.10;;;;;;5032622;28;20115;-70
2021/06/28 10:22:40;;;;;;;9.73;8.02;;;27.10;82.10;;;;;;5033070;28;20163;-70
2021/06/28 10:25:09;;;;;;;12.65;7.53;;;27.20;83.10;;;;;;5033042;28;20033;-69
2021/06/28 10:27:36;;;;;;;8.13;6.50;;;27.20;81.90;;;;;;5033491;28;20041;-69
2021/06/28 10:30:08;;;;;;;8.13;6.72;;;27.20;81.80;;;;;;5032791;28;20047;-70
2021/06/28 10:32:37;;;;;;;7.72;6.38;;;27.10;81.60;;;;;;5033206;28;20060;-70
2021/06/28 10:35:04;;;;;;;8.90;6.50;;;27.10;83.20;;;;;;5033296;28;20060;-70
2021/06/28 10:37:59;;;;;;;6.82;6.13;;;27.10;82.30;;;;;;5034694;28;20037;-70
2021/06/28 10:40:25;;;;;;;6.82;6.03;;;27.50;82.10;;;;;;5035723;28;20482;-70
2021/06/28 10:42:56;;;;;;;9.35;6.43;;;27.40;82.00;;;;;;5037085;28;20136;-70
2021/06/28 10:45:54;;;;;;;9.43;7.70;;;27.50;86.80;;;;;;5037123;28;20092;-70
2021/06/28 10:48:26;;;;;;;9.70;6.57;;;27.40;82.80;;;;;;5024786;28;20371;-69
2021/06/28 10:51:04;;;;;;;7.88;5.88;;;27.30;80.00;;;;;;5036353;28;20045;-69
2021/06/28 10:53:33;;;;;;;6.72;5.85;;;27.40;81.10;;;;;;5037015;28;20033;-69
2021/06/28 10:56:26;;;;;;;7.65;5.70;;;27.40;78.50;;;;;;5036789;28;20116;-69
2021/06/28 10:59:05;;;;;;;5.72;5.18;;;27.50;77.30;;;;;;5036050;28;20060;-69
2021/06/28 11:01:33;;;;;;;5.80;4.97;;;27.60;74.80;;;;;;5036131;28;20037;-69
2021/06/28 11:04:10;;;;;;;6.65;5.18;;;27.60;78.50;;;;;;5036678;28;20125;-69
2021/06/28 11:06:57;;;;;;;7.30;6.50;;;27.70;78.00;;;;;;5035478;28;20466;-69
2021/06/28 11:09:51;;;;;;;8.90;6.13;;;27.70;77.00;;;;;;5035860;28;20073;-69
2021/06/28 11:12:23;;;;;;;6.57;5.93;;;27.60;75.70;;;;;;5036420;28;20069;-69
2021/06/28 11:15:07;;;;;;;8.50;5.53;;;27.50;75.80;;;;;;5036271;28;20072;-68
2021/06/28 11:17:43;;;;;;;6.70;5.22;;;27.70;73.10;;;;;;5036608;28;20124;-69
2021/06/28 11:20:37;;;;;;;6.15;5.55;;;27.60;73.20;;;;;;5034804;28;20048;-68
2021/06/28 11:23:04;;;;;;;5.93;5.38;;;27.60;72.80;;;;;;5034931;28;20046;-68
2021/06/28 11:25:45;;;;;;;7.88;5.80;;;27.60;74.20;;;;;;5036147;28;20108;-68
2021/06/28 11:28:12;;;;;;;6.55;5.85;;;27.60;74.90;;;;;;5036013;28;20092;-69
2021/06/28 11:31:05;;;;;;;5.65;5.15;;;27.50;75.40;;;;;;5035444;28;20485;-68
2021/06/28 11:33:44;;;;;;;6.10;5.50;;;27.60;73.60;;;;;;5035848;28;20099;-69
2021/06/28 11:36:22;;;;;;;8.30;5.88;;;27.50;73.70;;;;;;5036165;28;20037;-68
2021/06/28 11:38:52;;;;;;;6.45;5.85;;;27.60;74.60;;;;;;5035369;28;20489;-68
2021/06/28 11:41:20;;;;;;;6.05;5.38;;;27.60;75.60;;;;;;5035609;28;20120;-69
2021/06/28 11:43:53;;;;;;;8.48;5.93;;;27.70;76.50;;;;;;5035958;28;20041;-68
2021/06/28 11:46:26;;;;;;;6.20;5.65;;;27.80;75.10;;;;;;5035788;28;20064;-69
2021/06/28 11:49:08;;;;;;;7.00;5.88;;;27.80;74.50;;;;;;5035120;28;20040;-69
2021/06/28 11:51:34;;;;;;;9.48;6.68;;;27.90;75.70;;;;;;5035530;28;20042;-67
2021/06/28 11:54:06;;;;;;;8.57;6.32;;;27.80;76.60;;;;;;5035700;28;20041;-68
2021/06/28 11:56:37;;;;;;;9.85;6.25;;;27.80;77.10;;;;;;5035415;28;20041;-68
2021/06/28 11:59:17;;;;;;;8.70;6.70;;;27.80;76.90;;;;;;5035252;28;20383;-68
2021/06/28 12:01:54;;;;;;;10.73;6.15;;;27.80;77.80;;;;;;5035139;28;20048;-67
2021/06/28 12:04:22;;;;;;;7.72;6.43;;;27.80;76.90;;;;;;5035286;28;20041;-68
2021/06/28 12:06:49;;;;;;;6.90;6.25;;;27.80;77.10;;;;;;5035100;28;20033;-68
2021/06/28 12:09:16;;;;;;;7.07;6.03;;;27.80;78.00;;;;;;5034789;28;20041;-68
2021/06/28 12:12:00;;;;;;;8.43;6.20;;;27.90;76.40;;;;;;5035257;28;20045;-68
2021/06/28 12:14:34;;;;;;;7.10;5.90;;;27.90;75.80;;;;;;5034845;28;20038;-69
2021/06/28 12:17:07;;;;;;;6.53;5.10;;;27.90;79.50;;;;;;5035027;28;20052;-67
2021/06/28 12:19:34;;;;;;;6.10;5.55;;;28.20;78.70;;;;;;5034709;28;20095;-68
2021/06/28 12:22:14;;;;;;;6.68;6.07;;;28.30;77.80;;;;;;5034809;28;20045;-67
2021/06/28 12:24:45;;;;;;;6.68;5.93;;;28.40;77.30;;;;;;5034928;28;20040;-68
2021/06/28 12:27:16;;;;;;;6.82;6.18;;;28.30;75.40;;;;;;5034703;28;20449;-68
2021/06/28 12:29:45;;;;;;;6.88;5.65;;;28.40;75.80;;;;;;5034262;28;20504;-68
2021/06/28 12:32:19;;;;;;;9.02;7.03;;;28.30;75.40;;;;;;5034582;28;20481;-68
2021/06/28 12:34:52;;;;;;;6.47;5.95;;;28.30;74.90;;;;;;5034811;28;20049;-67
2021/06/28 12:37:22;;;;;;;5.82;5.13;;;28.20;77.70;;;;;;5034790;28;20397;-68
2021/06/28 12:39:49;;;;;;;6.30;5.70;;;28.30;77.00;;;;;;5034289;28;20041;-67
2021/06/28 12:42:18;;;;;;;6.95;5.70;;;28.30;74.60;;;;;;5035112;28;20044;-67
2021/06/28 12:44:46;;;;;;;4.93;4.47;;;28.20;75.20;;;;;;5034680;28;20038;-67
2021/06/28 12:47:15;;;;;;;5.85;5.35;;;28.50;75.60;;;;;;5034827;28;20099;-67